Time;durP1;ratioP1;P1;durP2;ratioP2;P2;SDS_P1;SDS_P2;PMS_P1;PMS_P2;Temp;Humidity;BMP_temperature;BMP_pressure;BME280_temperature;BME280_humidity;BME280_pressure;Samples;Min_cycle;Max_cycle;Signal;HPM_P1;HPM_P2
2021/12/14 00:00:44;;;;;;;24.70;21.20;;;;;;;;;;5006049;28;20496;-62
2021/12/14 00:03:12;;;;;;;24.20;21.25;;;;;;;;;;5005656;28;20046;-63
2021/12/14 00:05:38;;;;;;;24.00;20.88;;;;;;;;;;5005175;28;20045;-63
2021/12/14 00:08:06;;;;;;;24.33;20.15;;;;;;;;;;5005865;28;20117;-63
2021/12/14 00:13:06;;;;;;;23.77;20.58;;;;;;;;;;5005325;28;20045;-63
2021/12/14 00:15:32;;;;;;;23.27;19.65;;;;;;;;;;5005157;28;20230;-63
2021/12/14 00:18:00;;;;;;;21.77;19.30;;;;;;;;;;5006840;28;20041;-63
2021/12/14 00:20:32;;;;;;;27.55;21.10;;;;;;;;;;5005466;28;20038;-62
2021/12/14 00:25:28;;;;;;;25.55;20.83;;;;;;;;;;5005393;28;20049;-63
2021/12/14 00:27:54;;;;;;;22.50;18.90;;;;;;;;;;5005114;28;20061;-63
2021/12/14 00:30:21;;;;;;;22.13;19.85;;;;;;;;;;5004861;28;20042;-63
2021/12/14 00:32:47;;;;;;;24.10;19.77;;;;;;;;;;4989099;28;20052;-62
2021/12/14 00:35:13;;;;;;;24.65;18.23;;;;;;;;;;5005169;28;20034;-62
2021/12/14 00:37:50;;;;;;;23.60;19.25;;;;;;;;;;4988929;28;20185;-62
2021/12/14 00:40:23;;;;;;;28.58;20.00;;;;;;;;;;5005252;28;20049;-62
2021/12/14 00:42:50;;;;;;;27.83;20.35;;;;;;;;;;5015048;28;20050;-63
2021/12/14 00:45:17;;;;;;;24.45;20.10;;;;;;;;;;5006825;28;20128;-61
2021/12/14 00:47:43;;;;;;;24.85;19.95;;;;;;;;;;4990415;28;20060;-62
2021/12/14 00:50:10;;;;;;;25.20;19.33;;;;;;;;;;5006527;28;20122;-61
2021/12/14 00:52:36;;;;;;;25.73;20.00;;;;;;;;;;5007144;28;20046;-61
2021/12/14 00:55:05;;;;;;;27.63;20.48;;;;;;;;;;5006720;28;20914;-62
2021/12/14 00:57:31;;;;;;;24.60;19.35;;;;;;;;;;5005989;28;20052;-61
2021/12/14 00:59:57;;;;;;;22.77;18.50;;;;;;;;;;5008241;28;20042;-61
2021/12/14 01:02:24;;;;;;;27.75;20.35;;;;;;;;;;5007183;28;20117;-61
2021/12/14 01:04:54;;;;;;;24.85;19.05;;;;;;;;;;5005177;28;20050;-63
2021/12/14 01:07:21;;;;;;;24.58;20.45;;;;;;;;;;5005044;28;20498;-62
2021/12/14 01:09:50;;;;;;;28.05;21.48;;;;;;;;;;5005593;28;20048;-62
2021/12/14 01:12:23;;;;;;;23.45;20.40;;;;;;;;;;5006301;28;20473;-62
2021/12/14 01:15:10;;;;;;;23.27;19.15;;;;;;;;;;5006464;28;20045;-62
2021/12/14 01:17:55;;;;;;;23.05;18.92;;;;;;;;;;5005839;28;20543;-62
2021/12/14 01:20:30;;;;;;;24.35;19.98;;;;;;;;;;5005037;28;20387;-62
2021/12/14 01:23:01;;;;;;;24.90;20.13;;;;;;;;;;5005148;28;20065;-62
2021/12/14 01:25:30;;;;;;;22.17;19.63;;;;;;;;;;5004307;28;20116;-62
2021/12/14 01:27:58;;;;;;;22.55;18.73;;;;;;;;;;5005020;28;20144;-62
2021/12/14 01:30:36;;;;;;;21.73;18.48;;;;;;;;;;5005126;28;20487;-62
2021/12/14 01:33:05;;;;;;;22.88;17.20;;;;;;;;;;5004713;28;20090;-62
2021/12/14 01:35:33;;;;;;;24.95;19.50;;;;;;;;;;4988309;28;20130;-62
2021/12/14 01:38:05;;;;;;;23.92;19.48;;;;;;;;;;5021297;28;20502;-62
2021/12/14 01:40:53;;;;;;;23.48;18.75;;;;;;;;;;5021002;28;20038;-62
2021/12/14 01:43:21;;;;;;;22.77;18.35;;;;;;;;;;5007906;28;20092;-62
2021/12/14 01:45:47;;;;;;;22.42;17.83;;;;;;;;;;5008063;28;20120;-62
2021/12/14 01:48:13;;;;;;;23.02;17.33;;;;;;;;;;4992117;28;20072;-63
2021/12/14 01:50:42;;;;;;;22.17;17.60;;;;;;;;;;5009612;28;20038;-62
2021/12/14 01:53:09;;;;;;;23.23;18.65;;;;;;;;;;5009428;28;20053;-63
2021/12/14 01:55:37;;;;;;;24.08;19.00;;;;;;;;;;5008216;28;20060;-64
2021/12/14 01:58:05;;;;;;;19.85;17.05;;;;;;;;;;5008935;28;20042;-63
2021/12/14 02:00:43;;;;;;;21.17;17.58;;;;;;;;;;5007747;28;20033;-63
2021/12/14 02:03:10;;;;;;;20.58;16.15;;;;;;;;;;5009375;28;20046;-63
2021/12/14 02:05:40;;;;;;;21.55;16.65;;;;;;;;;;5007538;28;20044;-63
2021/12/14 02:08:14;;;;;;;21.73;18.65;;;;;;;;;;5009987;28;20073;-63
2021/12/14 02:10:40;;;;;;;20.60;16.92;;;;;;;;;;5007935;28;20053;-63
2021/12/14 02:13:07;;;;;;;23.52;18.23;;;;;;;;;;5008021;28;20042;-63
2021/12/14 02:15:38;;;;;;;22.02;16.92;;;;;;;;;;5007748;28;20037;-63
2021/12/14 02:18:24;;;;;;;21.30;18.15;;;;;;;;;;5008182;28;20080;-62
2021/12/14 02:20:58;;;;;;;19.83;17.45;;;;;;;;;;5009026;28;20065;-62
2021/12/14 02:23:25;;;;;;;22.92;18.10;;;;;;;;;;5007528;28;20670;-63
2021/12/14 02:25:52;;;;;;;23.65;19.90;;;;;;;;;;5009329;28;20037;-63
2021/12/14 02:28:20;;;;;;;21.73;19.40;;;;;;;;;;5007031;28;20054;-63
2021/12/14 02:30:49;;;;;;;25.60;22.50;;;;;;;;;;5007867;28;20538;-63
2021/12/14 02:33:23;;;;;;;27.20;21.42;;;;;;;;;;5008722;28;20038;-63
2021/12/14 02:35:50;;;;;;;32.40;24.73;;;;;;;;;;4991687;28;20073;-63
2021/12/14 02:38:18;;;;;;;35.08;25.45;;;;;;;;;;5008134;28;20460;-63
2021/12/14 02:40:56;;;;;;;34.13;25.70;;;;;;;;;;5008638;28;20538;-63
2021/12/14 02:43:38;;;;;;;33.97;25.75;;;;;;;;;;4990685;28;20514;-63
2021/12/14 02:46:10;;;;;;;36.03;29.08;;;;;;;;;;5022587;28;20077;-63
2021/12/14 02:48:36;;;;;;;36.05;29.42;;;;;;;;;;5007816;28;20137;-63
2021/12/14 02:51:26;;;;;;;34.55;29.15;;;;;;;;;;5007488;28;20394;-63
2021/12/14 02:53:54;;;;;;;35.70;28.23;;;;;;;;;;5010581;28;20447;-63
2021/12/14 02:56:22;;;;;;;37.00;28.52;;;;;;;;;;5007535;28;20053;-63
2021/12/14 02:58:49;;;;;;;37.30;28.88;;;;;;;;;;5007820;28;20053;-63
2021/12/14 03:01:16;;;;;;;34.58;27.58;;;;;;;;;;5007662;28;20527;-62
2021/12/14 03:03:43;;;;;;;36.05;27.70;;;;;;;;;;5009167;28;20041;-62
2021/12/14 03:06:11;;;;;;;37.10;30.50;;;;;;;;;;5007510;28;20042;-62
2021/12/14 03:08:45;;;;;;;37.90;30.02;;;;;;;;;;5007625;28;20534;-62
2021/12/14 03:11:11;;;;;;;;;;;;;;;;;;5007961;28;20539;-61
2021/12/14 03:13:40;;;;;;;39.03;30.85;;;;;;;;;;5007440;28;20624;-63
2021/12/14 03:16:08;;;;;;;39.67;29.27;;;;;;;;;;5023661;28;20048;-63
2021/12/14 03:18:36;;;;;;;38.75;30.15;;;;;;;;;;4991060;28;20081;-62
2021/12/14 03:21:04;;;;;;;38.95;31.60;;;;;;;;;;5007245;28;20050;-63
2021/12/14 03:23:33;;;;;;;37.90;29.75;;;;;;;;;;5018718;28;20042;-62
2021/12/14 03:26:00;;;;;;;38.80;30.50;;;;;;;;;;4991286;28;20052;-61
2021/12/14 03:28:28;;;;;;;37.83;29.58;;;;;;;;;;5008604;28;20041;-61
2021/12/14 03:31:13;;;;;;;36.88;28.70;;;;;;;;;;5006071;28;20124;-61
2021/12/14 03:33:43;;;;;;;39.17;29.30;;;;;;;;;;5009892;28;20029;-60
2021/12/14 03:36:15;;;;;;;39.70;29.30;;;;;;;;;;5008609;28;20062;-61
2021/12/14 03:39:04;;;;;;;40.38;29.95;;;;;;;;;;5007103;28;20042;-61
2021/12/14 03:41:36;;;;;;;31.77;25.15;;;;;;;;;;5004662;28;20058;-61
2021/12/14 03:44:05;;;;;;;38.63;29.90;;;;;;;;;;5008602;28;20049;-61
2021/12/14 03:46:33;;;;;;;39.83;29.92;;;;;;;;;;5025073;28;20103;-61
2021/12/14 03:49:00;;;;;;;38.40;30.80;;;;;;;;;;5009863;28;20053;-61
2021/12/14 03:51:27;;;;;;;40.03;31.80;;;;;;;;;;5008693;28;20388;-61
2021/12/14 03:53:55;;;;;;;36.72;27.92;;;;;;;;;;5007084;28;20388;-62
2021/12/14 03:56:21;;;;;;;37.88;31.17;;;;;;;;;;5007888;28;20057;-62
2021/12/14 03:58:48;;;;;;;36.53;30.35;;;;;;;;;;5024730;28;20038;-61
2021/12/14 04:01:20;;;;;;;39.75;30.75;;;;;;;;;;5008358;28;20033;-62
2021/12/14 04:03:48;;;;;;;33.67;27.83;;;;;;;;;;5008065;28;20045;-61
2021/12/14 04:06:14;;;;;;;37.80;30.35;;;;;;;;;;5007918;28;20064;-63
2021/12/14 04:08:41;;;;;;;38.90;30.52;;;;;;;;;;5008967;28;20050;-62
2021/12/14 04:11:08;;;;;;;35.58;30.20;;;;;;;;;;5007696;28;20072;-62
2021/12/14 04:13:37;;;;;;;37.67;28.88;;;;;;;;;;5009523;28;20168;-61
2021/12/14 04:16:04;;;;;;;36.97;30.42;;;;;;;;;;5007465;28;20075;-61
2021/12/14 04:18:30;;;;;;;38.83;30.67;;;;;;;;;;5008981;28;20037;-62
2021/12/14 04:20:59;;;;;;;41.50;32.00;;;;;;;;;;5007001;28;20052;-61
2021/12/14 04:23:28;;;;;;;40.88;31.88;;;;;;;;;;5007475;28;20053;-61
2021/12/14 04:25:56;;;;;;;38.20;30.92;;;;;;;;;;5005947;28;20056;-61
2021/12/14 04:28:24;;;;;;;38.67;31.77;;;;;;;;;;5005938;28;20048;-61
2021/12/14 04:30:50;;;;;;;40.30;31.10;;;;;;;;;;5006501;28;20417;-61
2021/12/14 04:33:18;;;;;;;36.72;27.42;;;;;;;;;;5005951;28;20045;-61
2021/12/14 04:35:45;;;;;;;42.03;32.42;;;;;;;;;;5006201;28;20038;-62
2021/12/14 04:38:22;;;;;;;44.05;33.00;;;;;;;;;;5007345;28;20358;-61
2021/12/14 04:52:00;;;;;;;49.80;35.85;;;;;;;;;;5017638;28;20400;-61
2021/12/14 04:54:28;;;;;;;48.13;35.80;;;;;;;;;;4999266;28;20088;-61
2021/12/14 04:56:55;;;;;;;47.80;35.38;;;;;;;;;;5006192;28;20053;-61
2021/12/14 04:59:23;;;;;;;47.35;35.05;;;;;;;;;;5007015;28;20069;-61
2021/12/14 05:01:50;;;;;;;44.85;34.00;;;;;;;;;;5006367;28;20053;-61
2021/12/14 05:04:18;;;;;;;45.22;34.20;;;;;;;;;;5005567;28;20451;-61
2021/12/14 05:07:02;;;;;;;43.70;34.10;;;;;;;;;;5006046;28;20542;-61
2021/12/14 05:09:29;;;;;;;45.10;34.63;;;;;;;;;;5005788;28;20053;-61
2021/12/14 05:12:08;;;;;;;46.63;36.17;;;;;;;;;;5004628;28;20345;-61
2021/12/14 05:14:34;;;;;;;45.42;34.92;;;;;;;;;;5007077;28;20050;-61
2021/12/14 05:17:03;;;;;;;44.70;32.72;;;;;;;;;;5009409;28;20052;-62
2021/12/14 05:19:31;;;;;;;47.70;34.90;;;;;;;;;;5007509;28;20068;-61
2021/12/14 05:22:02;;;;;;;47.22;35.88;;;;;;;;;;5010763;28;20670;-63
2021/12/14 05:24:29;;;;;;;48.15;35.88;;;;;;;;;;5009286;28;20065;-63
2021/12/14 05:27:00;;;;;;;47.75;35.50;;;;;;;;;;5009333;28;20447;-63
2021/12/14 05:29:28;;;;;;;50.75;35.05;;;;;;;;;;5008548;28;20492;-62
2021/12/14 05:31:54;;;;;;;48.90;36.50;;;;;;;;;;5008883;28;20141;-63
2021/12/14 05:34:26;;;;;;;48.40;36.47;;;;;;;;;;4992150;28;20463;-63
2021/12/14 05:36:52;;;;;;;48.13;36.65;;;;;;;;;;5009264;28;20060;-63
2021/12/14 05:39:46;;;;;;;48.10;35.78;;;;;;;;;;5008164;28;20054;-63
2021/12/14 05:45:01;;;;;;;46.42;35.47;;;;;;;;;;5009658;28;20050;-62
2021/12/14 05:47:27;;;;;;;47.25;34.42;;;;;;;;;;5010099;28;20038;-62
2021/12/14 05:49:53;;;;;;;48.45;36.60;;;;;;;;;;5008991;28;20411;-62
2021/12/14 05:52:21;;;;;;;49.38;35.78;;;;;;;;;;5008685;28;20042;-62
2021/12/14 05:54:48;;;;;;;48.17;36.53;;;;;;;;;;5008300;28;20045;-63
2021/12/14 05:57:17;;;;;;;48.17;36.00;;;;;;;;;;5008207;28;20058;-63
2021/12/14 05:59:43;;;;;;;51.35;36.13;;;;;;;;;;5008571;28;20046;-63
2021/12/14 06:02:09;;;;;;;52.33;37.40;;;;;;;;;;5008351;28;20048;-62
2021/12/14 06:04:37;;;;;;;53.50;38.85;;;;;;;;;;5008442;28;20049;-63
2021/12/14 06:07:04;;;;;;;53.80;38.45;;;;;;;;;;5008002;28;20052;-62
2021/12/14 06:09:31;;;;;;;54.60;38.55;;;;;;;;;;5009629;28;20038;-62
2021/12/14 06:12:02;;;;;;;54.58;39.80;;;;;;;;;;4992140;28;20088;-62
2021/12/14 06:14:30;;;;;;;56.00;37.08;;;;;;;;;;5008179;28;20455;-62
2021/12/14 06:16:58;;;;;;;54.63;37.90;;;;;;;;;;5009819;28;20077;-61
2021/12/14 06:19:25;;;;;;;66.07;41.55;;;;;;;;;;5007500;28;20060;-62
2021/12/14 06:21:57;;;;;;;59.67;39.15;;;;;;;;;;5007932;28;20117;-62
2021/12/14 06:24:24;;;;;;;68.50;44.97;;;;;;;;;;5008110;28;20084;-62
2021/12/14 06:26:52;;;;;;;65.20;41.38;;;;;;;;;;4991123;28;20041;-61
2021/12/14 06:29:26;;;;;;;65.15;40.58;;;;;;;;;;5008989;28;20117;-61
2021/12/14 06:31:53;;;;;;;66.05;42.75;;;;;;;;;;4992254;28;20044;-61
2021/12/14 06:34:28;;;;;;;74.55;47.00;;;;;;;;;;4992748;28;20045;-61
2021/12/14 06:37:14;;;;;;;77.10;46.85;;;;;;;;;;5009183;28;20038;-61
2021/12/14 06:39:58;;;;;;;72.28;45.47;;;;;;;;;;5010924;28;20046;-62
2021/12/14 06:42:25;;;;;;;76.65;48.88;;;;;;;;;;5009061;28;20454;-62
2021/12/14 06:44:51;;;;;;;66.32;44.50;;;;;;;;;;5008352;28;20111;-62
2021/12/14 06:47:17;;;;;;;73.65;47.88;;;;;;;;;;5017182;28;20299;-62
2021/12/14 06:49:43;;;;;;;72.82;46.13;;;;;;;;;;5008952;28;20040;-62
2021/12/14 06:52:09;;;;;;;71.57;46.70;;;;;;;;;;5007440;28;20647;-63
2021/12/14 06:54:35;;;;;;;68.25;44.03;;;;;;;;;;5009203;28;20377;-61
2021/12/14 06:57:02;;;;;;;72.68;47.08;;;;;;;;;;4988914;28;20058;-63
2021/12/14 06:59:29;;;;;;;75.25;48.15;;;;;;;;;;5008742;28;20053;-61
2021/12/14 07:02:00;;;;;;;77.80;48.47;;;;;;;;;;5010923;28;20103;-61
2021/12/14 07:04:34;;;;;;;71.60;46.70;;;;;;;;;;5001000;28;20124;-61
2021/12/14 07:07:04;;;;;;;73.72;47.70;;;;;;;;;;5008235;28;20088;-62
2021/12/14 07:09:36;;;;;;;69.60;45.50;;;;;;;;;;5009762;28;20042;-61
2021/12/14 07:12:22;;;;;;;67.20;44.90;;;;;;;;;;5009671;28;20064;-62
2021/12/14 07:14:53;;;;;;;70.13;46.50;;;;;;;;;;5017034;28;20045;-61
2021/12/14 07:17:19;;;;;;;71.90;47.83;;;;;;;;;;5020010;28;20134;-62
2021/12/14 07:19:59;;;;;;;76.35;49.17;;;;;;;;;;5008669;28;20042;-62
2021/12/14 07:22:27;;;;;;;69.47;46.30;;;;;;;;;;5008313;28;20057;-62
2021/12/14 07:25:16;;;;;;;71.30;47.92;;;;;;;;;;5009042;28;20108;-62
2021/12/14 07:27:51;;;;;;;69.43;45.10;;;;;;;;;;5000031;28;20153;-63
2021/12/14 07:30:20;;;;;;;73.45;48.30;;;;;;;;;;5009670;28;20077;-63
2021/12/14 07:32:48;;;;;;;75.38;49.55;;;;;;;;;;5008865;28;20050;-62
2021/12/14 07:35:33;;;;;;;71.03;47.00;;;;;;;;;;5009874;28;20053;-62
2021/12/14 07:38:11;;;;;;;76.22;50.15;;;;;;;;;;5010858;28;20038;-61
2021/12/14 07:40:40;;;;;;;72.13;46.88;;;;;;;;;;5011677;28;20049;-61
2021/12/14 07:43:11;;;;;;;69.80;46.22;;;;;;;;;;5011674;28;20042;-62
2021/12/14 07:45:38;;;;;;;71.72;48.13;;;;;;;;;;5010203;28;20188;-61
2021/12/14 07:48:04;;;;;;;79.40;50.72;;;;;;;;;;5010238;28;20046;-60
2021/12/14 07:50:38;;;;;;;69.10;43.92;;;;;;;;;;5008989;28;20050;-60
2021/12/14 07:53:05;;;;;;;70.55;46.35;;;;;;;;;;5010148;28;20411;-60
2021/12/14 07:55:31;;;;;;;78.53;50.17;;;;;;;;;;5025059;28;20226;-60
2021/12/14 07:57:57;;;;;;;72.43;46.53;;;;;;;;;;5010319;28;20085;-61
2021/12/14 08:00:25;;;;;;;81.60;51.65;;;;;;;;;;5009795;28;20165;-61
2021/12/14 08:02:52;;;;;;;72.82;45.83;;;;;;;;;;5008760;28;20091;-61
2021/12/14 08:05:29;;;;;;;78.97;49.92;;;;;;;;;;5007976;28;20089;-61
2021/12/14 08:07:55;;;;;;;72.82;47.60;;;;;;;;;;5008033;28;20104;-61
2021/12/14 08:10:24;;;;;;;72.22;44.90;;;;;;;;;;5008941;28;20046;-61
2021/12/14 08:12:56;;;;;;;76.50;49.10;;;;;;;;;;5007355;28;20046;-61
2021/12/14 08:15:22;;;;;;;79.00;47.88;;;;;;;;;;5007319;28;20096;-61
2021/12/14 08:18:05;;;;;;;80.60;49.88;;;;;;;;;;5007984;28;20034;-60
2021/12/14 08:20:32;;;;;;;85.28;48.35;;;;;;;;;;5014456;28;20070;-61
2021/12/14 08:23:10;;;;;;;83.60;49.70;;;;;;;;;;5009396;28;20053;-62
2021/12/14 08:25:36;;;;;;;92.63;53.92;;;;;;;;;;5007309;28;20053;-62
2021/12/14 08:28:05;;;;;;;83.43;50.83;;;;;;;;;;5013858;28;20487;-62
2021/12/14 08:30:32;;;;;;;89.25;52.13;;;;;;;;;;5007587;28;20100;-62
2021/12/14 08:32:59;;;;;;;88.75;51.13;;;;;;;;;;5006655;28;20073;-62
2021/12/14 08:35:25;;;;;;;92.10;51.42;;;;;;;;;;5006638;28;20041;-63
2021/12/14 08:37:54;;;;;;;90.47;50.95;;;;;;;;;;5007517;28;20523;-62
2021/12/14 08:40:24;;;;;;;93.03;52.65;;;;;;;;;;4991118;28;20499;-62
2021/12/14 08:45:29;;;;;;;101.47;55.78;;;;;;;;;;5012560;28;20050;-61
2021/12/14 08:48:29;;;;;;;102.45;55.58;;;;;;;;;;5012432;28;20129;-61
2021/12/14 08:51:12;;;;;;;98.90;52.58;;;;;;;;;;4997277;28;20518;-62
2021/12/14 08:53:38;;;;;;;84.23;47.00;;;;;;;;;;5019890;28;20533;-62
2021/12/14 08:56:06;;;;;;;103.00;55.28;;;;;;;;;;5010308;28;20100;-62
2021/12/14 08:58:32;;;;;;;96.78;54.88;;;;;;;;;;5016752;28;20049;-62
2021/12/14 09:01:08;;;;;;;98.45;53.92;;;;;;;;;;4994611;28;20164;-62
2021/12/14 09:03:36;;;;;;;108.45;57.45;;;;;;;;;;5013027;28;20140;-62
2021/12/14 09:06:05;;;;;;;97.68;53.97;;;;;;;;;;5013006;28;20085;-62
2021/12/14 09:08:31;;;;;;;103.20;55.58;;;;;;;;;;5028047;28;20149;-62
2021/12/14 09:10:58;;;;;;;122.38;59.67;;;;;;;;;;5011640;28;20042;-62
2021/12/14 09:13:25;;;;;;;127.53;60.67;;;;;;;;;;5011027;28;20101;-62
2021/12/14 09:15:57;;;;;;;133.63;62.75;;;;;;;;;;5011615;28;20046;-62
2021/12/14 09:18:24;;;;;;;127.85;58.15;;;;;;;;;;5012834;28;20048;-61
2021/12/14 09:21:01;;;;;;;158.73;65.55;;;;;;;;;;5012838;28;20523;-63
2021/12/14 09:23:30;;;;;;;157.88;64.22;;;;;;;;;;5011084;28;20042;-62
2021/12/14 09:25:57;;;;;;;151.77;65.40;;;;;;;;;;5012663;28;20415;-62
2021/12/14 09:28:23;;;;;;;159.90;66.90;;;;;;;;;;5011111;28;20129;-62
2021/12/14 09:30:55;;;;;;;154.50;64.95;;;;;;;;;;5011086;28;20045;-63
2021/12/14 09:33:21;;;;;;;171.02;68.07;;;;;;;;;;5012302;28;20578;-62
2021/12/14 09:35:48;;;;;;;189.30;71.78;;;;;;;;;;5011445;28;20293;-62
2021/12/14 09:38:17;;;;;;;156.50;66.40;;;;;;;;;;4995071;28;20088;-62
2021/12/14 09:40:46;;;;;;;152.27;65.47;;;;;;;;;;5011086;28;20042;-62
2021/12/14 09:43:12;;;;;;;139.70;63.75;;;;;;;;;;5011073;28;20404;-62
2021/12/14 09:45:43;;;;;;;164.88;68.07;;;;;;;;;;5010748;28;20068;-62
2021/12/14 09:48:12;;;;;;;186.15;68.13;;;;;;;;;;5010739;28;20052;-63
2021/12/14 09:50:38;;;;;;;174.48;68.97;;;;;;;;;;5011990;28;20049;-62
2021/12/14 09:53:06;;;;;;;171.35;66.20;;;;;;;;;;5012949;28;20042;-62
2021/12/14 09:55:34;;;;;;;167.02;67.78;;;;;;;;;;5012286;28;20061;-63
2021/12/14 09:58:03;;;;;;;204.30;75.03;;;;;;;;;;5011547;28;20049;-63
2021/12/14 10:00:35;;;;;;;196.65;73.38;;;;;;;;;;5012655;28;20045;-62
2021/12/14 10:03:04;;;;;;;168.68;70.43;;;;;;;;;;5011503;28;20045;-62
2021/12/14 10:05:36;;;;;;;160.30;62.25;;;;;;;;;;5027698;28;20065;-62
2021/12/14 10:08:03;;;;;;;150.68;60.78;;;;;;;;;;5010894;28;20065;-61
2021/12/14 10:10:36;;;;;;;196.30;73.70;;;;;;;;;;5025902;28;20447;-61
2021/12/14 10:13:02;;;;;;;187.93;70.47;;;;;;;;;;5009289;28;20079;-61
2021/12/14 10:15:31;;;;;;;244.30;81.82;;;;;;;;;;5008942;28;20077;-61
2021/12/14 10:18:00;;;;;;;185.07;71.38;;;;;;;;;;5010810;28;20042;-62
2021/12/14 10:20:29;;;;;;;190.90;73.55;;;;;;;;;;5012892;28;20048;-62
2021/12/14 10:22:55;;;;;;;188.68;73.03;;;;;;;;;;5011009;28;20049;-62
2021/12/14 10:25:23;;;;;;;208.82;77.72;;;;;;;;;;5011513;28;20057;-62
2021/12/14 10:27:49;;;;;;;175.43;67.85;;;;;;;;;;5011189;28;20073;-62
2021/12/14 10:30:20;;;;;;;155.25;65.43;;;;;;;;;;5011997;28;20539;-62
2021/12/14 10:32:47;;;;;;;178.45;69.47;;;;;;;;;;5012576;28;20488;-61
2021/12/14 10:35:16;;;;;;;185.05;73.28;;;;;;;;;;5012309;28;20042;-62
2021/12/14 10:37:55;;;;;;;155.80;67.93;;;;;;;;;;5010679;28;20587;-61
2021/12/14 10:43:21;;;;;;;164.95;71.30;;;;;;;;;;5010077;28;20541;-62
2021/12/14 10:45:50;;;;;;;147.85;65.95;;;;;;;;;;5008667;28;20042;-62
2021/12/14 10:48:17;;;;;;;167.35;70.78;;;;;;;;;;5010401;28;20064;-61
2021/12/14 10:50:44;;;;;;;144.93;66.57;;;;;;;;;;5009625;28;20046;-62
2021/12/14 10:53:11;;;;;;;144.15;68.07;;;;;;;;;;5010726;28;20049;-61
2021/12/14 10:55:39;;;;;;;132.93;62.53;;;;;;;;;;4971653;28;1130132;-61
2021/12/14 10:58:06;;;;;;;143.15;65.53;;;;;;;;;;5028761;28;20049;-64
2021/12/14 11:00:35;;;;;;;146.73;64.15;;;;;;;;;;5009963;28;20101;-62
2021/12/14 11:03:10;;;;;;;160.00;65.03;;;;;;;;;;5011049;28;20598;-63
2021/12/14 11:05:38;;;;;;;152.10;62.40;;;;;;;;;;5009579;28;20049;-63
2021/12/14 11:08:23;;;;;;;132.98;56.60;;;;;;;;;;5009632;28;20057;-63
2021/12/14 11:10:53;;;;;;;148.52;60.70;;;;;;;;;;5009538;28;20046;-63
2021/12/14 11:13:19;;;;;;;158.77;66.20;;;;;;;;;;5008525;28;20041;-62
2021/12/14 11:15:48;;;;;;;147.40;62.10;;;;;;;;;;5009163;28;20161;-62
2021/12/14 11:18:17;;;;;;;147.70;63.05;;;;;;;;;;5011012;28;20049;-61
2021/12/14 11:20:46;;;;;;;133.13;58.10;;;;;;;;;;5010619;28;20053;-61
2021/12/14 11:23:14;;;;;;;148.55;61.63;;;;;;;;;;5009164;28;20044;-61
2021/12/14 11:25:49;;;;;;;135.23;59.20;;;;;;;;;;5009438;28;20510;-61
2021/12/14 11:28:19;;;;;;;133.15;59.97;;;;;;;;;;5009359;28;20061;-61
2021/12/14 11:30:56;;;;;;;138.27;60.95;;;;;;;;;;5008076;28;20381;-61
2021/12/14 11:33:27;;;;;;;132.43;57.67;;;;;;;;;;5010014;28;20042;-61
2021/12/14 11:36:00;;;;;;;136.10;60.60;;;;;;;;;;5007262;28;20045;-61
2021/12/14 11:38:39;;;;;;;133.55;59.03;;;;;;;;;;5009328;28;20476;-61
2021/12/14 11:41:20;;;;;;;143.00;60.97;;;;;;;;;;5003126;28;20038;-61
2021/12/14 11:43:54;;;;;;;117.38;53.58;;;;;;;;;;5009122;28;20099;-62
2021/12/14 11:46:21;;;;;;;122.35;56.40;;;;;;;;;;5009764;28;20053;-62
2021/12/14 11:48:47;;;;;;;117.68;55.70;;;;;;;;;;5010277;28;20156;-61
2021/12/14 11:51:13;;;;;;;131.68;58.63;;;;;;;;;;5009983;28;20046;-61
2021/12/14 11:53:47;;;;;;;129.07;57.08;;;;;;;;;;5010211;28;20488;-62
2021/12/14 11:56:16;;;;;;;111.10;51.47;;;;;;;;;;5009957;28;20062;-61
2021/12/14 11:58:43;;;;;;;128.48;55.08;;;;;;;;;;4989179;28;20051;-61
2021/12/14 12:01:28;;;;;;;131.63;56.03;;;;;;;;;;4988610;28;20117;-61
2021/12/14 12:03:56;;;;;;;133.07;54.10;;;;;;;;;;5006181;28;20069;-62
2021/12/14 12:09:32;;;;;;;150.25;59.97;;;;;;;;;;5009577;28;20061;-62
2021/12/14 12:12:08;;;;;;;141.15;56.95;;;;;;;;;;5008339;28;20045;-62
2021/12/14 12:14:37;;;;;;;131.38;54.83;;;;;;;;;;5009703;28;20033;-62
2021/12/14 12:17:09;;;;;;;127.28;53.90;;;;;;;;;;5007514;28;20050;-62
2021/12/14 12:19:36;;;;;;;131.77;52.55;;;;;;;;;;5007448;28;20076;-62
2021/12/14 12:22:10;;;;;;;129.52;54.03;;;;;;;;;;5008724;28;20416;-62
2021/12/14 12:24:51;;;;;;;148.00;55.60;;;;;;;;;;5005854;28;20669;-62
2021/12/14 12:27:22;;;;;;;181.38;62.13;;;;;;;;;;4989411;28;20050;-62
2021/12/14 12:30:04;;;;;;;131.32;51.25;;;;;;;;;;4990074;28;20050;-62
2021/12/14 12:32:30;;;;;;;132.27;52.00;;;;;;;;;;4989651;28;20060;-62
2021/12/14 12:34:56;;;;;;;123.07;50.20;;;;;;;;;;4988603;28;20034;-62
2021/12/14 12:37:42;;;;;;;163.88;58.10;;;;;;;;;;4989795;28;20395;-63
2021/12/14 12:40:12;;;;;;;152.52;55.28;;;;;;;;;;4988718;28;20078;-62
2021/12/14 12:42:39;;;;;;;115.03;48.35;;;;;;;;;;4988466;28;20105;-62
2021/12/14 12:45:07;;;;;;;122.57;51.22;;;;;;;;;;4988344;28;20104;-62
2021/12/14 12:47:34;;;;;;;108.57;46.95;;;;;;;;;;4988875;28;20347;-62
2021/12/14 12:50:00;;;;;;;149.18;56.03;;;;;;;;;;4990200;28;20082;-62
2021/12/14 12:52:30;;;;;;;124.95;50.00;;;;;;;;;;4988356;28;20042;-62
2021/12/14 12:55:01;;;;;;;124.57;49.97;;;;;;;;;;4988798;28;20069;-62
2021/12/14 12:57:34;;;;;;;128.05;48.88;;;;;;;;;;4988082;28;20057;-62
2021/12/14 13:00:19;;;;;;;124.43;49.17;;;;;;;;;;4989892;28;20042;-62
2021/12/14 13:02:45;;;;;;;118.90;48.38;;;;;;;;;;4989928;28;20104;-62
2021/12/14 13:05:17;;;;;;;108.30;44.95;;;;;;;;;;4989858;28;20097;-62
2021/12/14 13:07:45;;;;;;;118.78;48.20;;;;;;;;;;5004754;28;20053;-62
2021/12/14 13:10:20;;;;;;;127.30;48.03;;;;;;;;;;4989865;28;20500;-62
2021/12/14 13:12:51;;;;;;;102.43;43.85;;;;;;;;;;4988208;28;20101;-62
2021/12/14 13:15:36;;;;;;;101.50;44.22;;;;;;;;;;4988141;28;20125;-62
2021/12/14 13:18:15;;;;;;;100.03;44.92;;;;;;;;;;4989672;28;20610;-62
2021/12/14 13:20:41;;;;;;;113.45;46.67;;;;;;;;;;4988581;28;20064;-63
2021/12/14 13:23:07;;;;;;;105.15;44.92;;;;;;;;;;5005123;28;20061;-63
2021/12/14 13:25:37;;;;;;;114.60;47.83;;;;;;;;;;4988473;28;20078;-63
2021/12/14 13:28:04;;;;;;;98.05;45.00;;;;;;;;;;4989557;28;20034;-63
2021/12/14 13:30:31;;;;;;;98.55;44.85;;;;;;;;;;4989589;28;20053;-63
2021/12/14 13:32:57;;;;;;;103.38;43.47;;;;;;;;;;4988103;28;20047;-63
2021/12/14 13:35:25;;;;;;;92.95;42.03;;;;;;;;;;5004711;28;20109;-63
2021/12/14 13:38:02;;;;;;;81.38;39.10;;;;;;;;;;4993048;28;20182;-63
2021/12/14 13:40:32;;;;;;;96.93;42.00;;;;;;;;;;4992144;28;20056;-63
2021/12/14 13:42:58;;;;;;;93.47;40.00;;;;;;;;;;4991489;28;20078;-63
2021/12/14 13:45:29;;;;;;;95.57;40.13;;;;;;;;;;4991582;28;20104;-63
2021/12/14 13:47:55;;;;;;;109.30;43.00;;;;;;;;;;4993033;28;20412;-63
2021/12/14 13:50:24;;;;;;;79.13;35.45;;;;;;;;;;4993048;28;20117;-63
2021/12/14 13:52:52;;;;;;;95.50;39.25;;;;;;;;;;5007853;28;20475;-63
2021/12/14 13:55:21;;;;;;;85.70;38.85;;;;;;;;;;4991144;28;20086;-64
2021/12/14 13:57:49;;;;;;;83.43;34.75;;;;;;;;;;4991547;28;20065;-63
2021/12/14 14:00:18;;;;;;;70.35;33.67;;;;;;;;;;4991297;28;20121;-63
2021/12/14 14:02:44;;;;;;;77.90;36.63;;;;;;;;;;5005540;28;20454;-63
2021/12/14 14:05:11;;;;;;;80.30;36.40;;;;;;;;;;5011016;28;20504;-62
2021/12/14 14:07:37;;;;;;;67.97;32.80;;;;;;;;;;5013751;28;20117;-62
2021/12/14 14:10:06;;;;;;;72.10;35.42;;;;;;;;;;5011148;28;20116;-63
2021/12/14 14:12:42;;;;;;;58.22;30.10;;;;;;;;;;5009444;28;20508;-62
2021/12/14 14:15:19;;;;;;;68.30;33.35;;;;;;;;;;5011424;28;20056;-62
2021/12/14 14:17:53;;;;;;;62.10;30.67;;;;;;;;;;5012092;28;20427;-63
2021/12/14 14:20:22;;;;;;;69.60;33.33;;;;;;;;;;5010302;28;20119;-63
2021/12/14 14:22:48;;;;;;;73.47;35.33;;;;;;;;;;5009880;28;20132;-62
2021/12/14 14:25:26;;;;;;;59.55;29.88;;;;;;;;;;4998239;28;20546;-62
2021/12/14 14:27:57;;;;;;;71.00;33.83;;;;;;;;;;5009941;28;20507;-63
2021/12/14 14:30:29;;;;;;;72.15;33.72;;;;;;;;;;5011009;28;20037;-62
2021/12/14 14:33:20;;;;;;;70.00;33.55;;;;;;;;;;5008784;28;20042;-63
2021/12/14 14:35:49;;;;;;;58.28;30.65;;;;;;;;;;5010274;28;20042;-63
2021/12/14 14:38:28;;;;;;;71.53;33.17;;;;;;;;;;5008057;28;20049;-62
2021/12/14 14:40:56;;;;;;;94.43;39.00;;;;;;;;;;5008343;28;20053;-63
2021/12/14 14:43:22;;;;;;;82.53;35.72;;;;;;;;;;5007761;28;20396;-62
2021/12/14 14:45:48;;;;;;;89.97;38.60;;;;;;;;;;5008445;28;20034;-63
2021/12/14 14:48:24;;;;;;;83.82;36.63;;;;;;;;;;5006616;28;20045;-63
2021/12/14 14:50:50;;;;;;;83.85;36.67;;;;;;;;;;5006880;28;20042;-63
2021/12/14 14:53:20;;;;;;;98.75;41.72;;;;;;;;;;5008896;28;20041;-63
2021/12/14 14:55:57;;;;;;;119.85;45.40;;;;;;;;;;5009142;28;20057;-62
2021/12/14 14:58:42;;;;;;;119.63;43.90;;;;;;;;;;5007625;28;20053;-63